createdAt,value
2022-12-17T00:01:08.852Z,4.22
2022-12-17T00:03:56.924Z,3.91
2022-12-17T00:06:44.239Z,4.11
2022-12-17T00:09:32.583Z,4.18
2022-12-17T00:12:19.512Z,4.11
2022-12-17T00:15:06.033Z,4.41
2022-12-17T00:17:54.961Z,4.33
2022-12-17T00:20:43.761Z,4.53
2022-12-17T00:23:34.688Z,4.26
2022-12-17T00:26:22.599Z,4.24
2022-12-17T00:29:09.016Z,4.22
2022-12-17T00:31:57.897Z,4.10
2022-12-17T00:34:44.187Z,3.85
2022-12-17T00:37:30.789Z,3.89
2022-12-17T00:40:18.521Z,3.80
2022-12-17T00:43:20.117Z,3.60
2022-12-17T00:46:08.284Z,3.35
2022-12-17T00:48:56.444Z,3.40
2022-12-17T00:51:46.639Z,3.69
2022-12-17T00:54:35.838Z,3.33
2022-12-17T00:57:22.145Z,3.46
2022-12-17T01:00:09.440Z,3.93
2022-12-17T01:02:56.730Z,3.24
2022-12-17T01:05:44.997Z,3.72
2022-12-17T01:08:33.453Z,3.79
2022-12-17T01:11:24.576Z,4.14
2022-12-17T01:14:12.318Z,4.07
2022-12-17T01:16:59.400Z,4.17
2022-12-17T01:19:46.422Z,4.02
2022-12-17T01:22:34.859Z,4.09
2022-12-17T01:25:22.346Z,3.88
2022-12-17T01:28:11.060Z,3.96
2022-12-17T01:30:57.446Z,4.11
2022-12-17T01:33:43.835Z,3.73
2022-12-17T01:36:31.399Z,4.06
2022-12-17T01:39:18.110Z,3.91
2022-12-17T01:42:04.444Z,3.86
2022-12-17T01:45:12.573Z,3.46
2022-12-17T01:48:17.538Z,3.33
2022-12-17T01:51:10.132Z,3.23
2022-12-17T01:54:00.691Z,3.47
2022-12-17T01:56:47.343Z,3.68
2022-12-17T01:59:34.136Z,3.19
2022-12-17T02:02:25.210Z,3.01
2022-12-17T02:05:12.396Z,3.40
2022-12-17T02:08:14.053Z,2.69
2022-12-17T02:11:10.068Z,2.94
2022-12-17T02:14:01.378Z,2.96
2022-12-17T02:16:55.536Z,3.37
2022-12-17T02:20:20.462Z,3.40
2022-12-17T02:23:06.680Z,3.58
2022-12-17T02:26:14.237Z,4.09
2022-12-17T02:29:04.396Z,3.51
2022-12-17T02:31:53.436Z,3.63
2022-12-17T02:34:39.951Z,3.69
2022-12-17T02:37:27.002Z,3.81
2022-12-17T02:40:14.342Z,3.69
2022-12-17T02:43:02.655Z,3.44
2022-12-17T02:45:53.814Z,3.76
2022-12-17T02:48:42.560Z,3.75
2022-12-17T02:51:29.575Z,3.71
2022-12-17T02:54:34.375Z,3.43
2022-12-17T02:57:23.555Z,3.31
2022-12-17T03:00:10.342Z,3.33
2022-12-17T03:02:57.529Z,3.76
2022-12-17T03:05:45.750Z,3.81
2022-12-17T03:08:33.317Z,3.33
2022-12-17T03:11:20.388Z,3.90
2022-12-17T03:14:06.762Z,3.89
2022-12-17T03:16:53.751Z,4.16
2022-12-17T03:19:40.926Z,3.64
2022-12-17T03:22:29.427Z,3.89
2022-12-17T03:25:15.705Z,4.12
2022-12-17T03:28:01.868Z,4.11
2022-12-17T03:30:49.338Z,4.44
2022-12-17T03:33:36.189Z,3.74
2022-12-17T03:36:22.761Z,3.77
2022-12-17T03:39:09.643Z,4.01
2022-12-17T03:41:56.472Z,4.05
2022-12-17T03:44:43.044Z,3.32
2022-12-17T03:47:30.405Z,3.69
2022-12-17T03:50:19.519Z,3.45
2022-12-17T03:53:07.443Z,3.95
2022-12-17T03:55:54.872Z,3.30
2022-12-17T03:58:41.363Z,3.34
2022-12-17T04:01:29.457Z,3.02
2022-12-17T04:04:16.492Z,2.89
2022-12-17T04:07:07.556Z,2.90
2022-12-17T04:09:54.369Z,2.76
2022-12-17T04:12:41.068Z,2.59
2022-12-17T04:15:28.372Z,2.93
2022-12-17T04:18:15.863Z,3.16
2022-12-17T04:21:02.531Z,3.29
2022-12-17T04:23:49.201Z,3.16
2022-12-17T04:26:35.712Z,2.92
2022-12-17T04:29:23.285Z,2.51
2022-12-17T04:32:10.312Z,2.28
2022-12-17T04:34:57.190Z,2.55
2022-12-17T04:37:43.971Z,2.31
2022-12-17T04:40:30.878Z,2.23
2022-12-17T04:43:32.345Z,2.46
2022-12-17T04:46:18.618Z,2.20
2022-12-17T04:49:07.364Z,1.98
2022-12-17T04:51:59.356Z,2.41
2022-12-17T04:54:57.521Z,1.99
2022-12-17T04:57:46.224Z,2.48
2022-12-17T05:00:33.246Z,2.15
2022-12-17T05:03:34.654Z,2.62
2022-12-17T05:06:22.315Z,2.55
2022-12-17T05:09:10.953Z,2.40
2022-12-17T05:11:57.299Z,2.25
2022-12-17T05:14:45.508Z,1.93
2022-12-17T05:17:34.316Z,1.96
2022-12-17T05:20:22.341Z,2.41
2022-12-17T05:23:10.241Z,2.56
2022-12-17T05:25:57.351Z,2.25
2022-12-17T05:28:44.823Z,1.89
2022-12-17T05:31:32.701Z,1.89
2022-12-17T05:34:19.481Z,1.54
2022-12-17T05:37:06.206Z,1.84
2022-12-17T05:39:53.641Z,2.31
2022-12-17T05:42:41.144Z,1.97
2022-12-17T05:45:29.705Z,2.48
2022-12-17T05:48:17.397Z,2.20
2022-12-17T05:51:09.789Z,2.44
2022-12-17T05:53:56.993Z,2.07
2022-12-17T05:56:46.835Z,2.67
2022-12-17T05:59:34.025Z,2.28
2022-12-17T06:02:23.648Z,2.19
2022-12-17T06:05:10.898Z,2.10
2022-12-17T06:07:57.476Z,2.25
2022-12-17T06:10:45.085Z,2.42
2022-12-17T06:13:34.863Z,1.97
2022-12-17T06:16:23.821Z,2.02
2022-12-17T06:19:21.755Z,2.14
2022-12-17T06:22:08.842Z,1.78
2022-12-17T06:25:03.833Z,2.04
2022-12-17T06:27:56.324Z,2.15
2022-12-17T06:30:44.175Z,1.88
2022-12-17T06:33:34.970Z,2.49
2022-12-17T06:36:22.792Z,2.60
2022-12-17T06:39:18.737Z,2.25
2022-12-17T06:42:06.678Z,2.11
2022-12-17T06:44:53.758Z,2.40
2022-12-17T06:47:41.287Z,2.08
2022-12-17T06:50:28.350Z,2.21
2022-12-17T06:53:22.491Z,2.28
2022-12-17T06:56:10.071Z,1.73
2022-12-17T06:59:00.454Z,1.43
2022-12-17T07:01:41.326Z,1.58
2022-12-17T07:04:30.351Z,1.54
2022-12-17T07:07:25.612Z,1.62
2022-12-17T07:10:15.413Z,1.66
2022-12-17T07:13:02.812Z,1.97
2022-12-17T07:15:50.298Z,1.63
2022-12-17T07:18:38.068Z,1.46
2022-12-17T07:21:33.318Z,1.81
2022-12-17T07:24:23.332Z,1.72
2022-12-17T07:27:18.386Z,2.07
2022-12-17T07:30:07.462Z,1.98
2022-12-17T07:33:00.373Z,1.87
2022-12-17T07:35:47.409Z,2.02
2022-12-17T07:38:34.061Z,2.10
2022-12-17T07:41:21.727Z,1.79
2022-12-17T07:44:12.939Z,2.19
2022-12-17T07:47:05.965Z,1.79
2022-12-17T07:49:52.678Z,1.56
2022-12-17T07:52:40.275Z,1.58
2022-12-17T07:55:39.438Z,1.55
2022-12-17T07:58:31.327Z,1.28
2022-12-17T08:01:19.727Z,1.48
2022-12-17T08:04:27.788Z,1.72
2022-12-17T08:07:26.279Z,1.47
2022-12-17T08:10:14.336Z,1.59
2022-12-17T08:13:10.915Z,1.87
2022-12-17T08:16:08.279Z,1.96
2022-12-17T08:18:56.838Z,1.63
2022-12-17T08:21:46.059Z,1.72
2022-12-17T08:24:36.765Z,1.47
2022-12-17T08:27:27.250Z,1.81
2022-12-17T08:30:17.290Z,2.18
2022-12-17T08:33:05.759Z,2.12
2022-12-17T08:35:54.707Z,2.17
2022-12-17T08:38:45.113Z,1.61
2022-12-17T08:41:32.939Z,1.98
2022-12-17T08:44:20.873Z,1.95
2022-12-17T08:47:11.923Z,1.87
2022-12-17T08:50:05.225Z,2.04
2022-12-17T09:05:38.270Z,1.45
2022-12-17T09:08:27.345Z,1.53
2022-12-17T09:11:18.916Z,1.72
2022-12-17T09:14:07.426Z,1.53
2022-12-17T09:16:55.840Z,1.76
2022-12-17T09:19:42.727Z,2.06
2022-12-17T09:22:30.978Z,2.19
2022-12-17T09:25:18.249Z,2.10
2022-12-17T09:28:05.275Z,1.81
2022-12-17T09:30:53.293Z,1.58
2022-12-17T09:33:40.656Z,1.37
2022-12-17T09:36:17.503Z,1.54
2022-12-17T09:39:05.451Z,1.54
2022-12-17T09:42:14.322Z,1.93
2022-12-17T09:45:11.364Z,1.86
2022-12-17T09:47:58.161Z,1.95
2022-12-17T09:50:46.225Z,2.46
2022-12-17T09:53:59.624Z,2.15
2022-12-17T09:59:49.422Z,1.90
2022-12-17T10:02:41.316Z,1.85
2022-12-17T10:05:39.928Z,2.05
2022-12-17T10:08:32.121Z,1.74
2022-12-17T10:11:50.172Z,2.18
2022-12-17T10:14:47.272Z,2.16
2022-12-17T10:17:29.351Z,2.44
2022-12-17T10:20:19.264Z,2.36
2022-12-17T10:23:10.248Z,2.33
2022-12-17T10:25:56.902Z,2.24
2022-12-17T10:28:44.434Z,1.99
2022-12-17T10:31:39.995Z,2.01
2022-12-17T10:34:40.266Z,2.64
2022-12-17T10:37:38.297Z,2.82
2022-12-17T10:40:47.282Z,2.43
2022-12-17T10:43:45.948Z,2.76
2022-12-17T10:46:52.922Z,2.58
2022-12-17T10:49:42.563Z,2.36
2022-12-17T10:52:49.030Z,2.82
2022-12-17T10:55:43.206Z,3.03
2022-12-17T10:58:37.128Z,3.60
2022-12-17T11:01:39.765Z,3.86
2022-12-17T11:04:48.354Z,3.84
2022-12-17T11:07:44.406Z,3.82
2022-12-17T11:10:42.249Z,3.28
2022-12-17T11:13:32.639Z,3.49
2022-12-17T11:16:23.084Z,3.97
2022-12-17T11:19:36.743Z,3.96
2022-12-17T11:22:55.238Z,3.91
2022-12-17T11:25:43.531Z,3.98
2022-12-17T11:28:46.279Z,3.82
2022-12-17T11:32:15.289Z,3.13
2022-12-17T11:35:09.734Z,3.34
2022-12-17T11:38:33.339Z,3.69
2022-12-17T11:41:45.577Z,4.24
2022-12-17T11:44:42.221Z,4.04
2022-12-17T11:47:39.886Z,3.50
2022-12-17T11:50:31.447Z,3.87
2022-12-17T11:54:03.386Z,3.70
2022-12-17T11:57:19.010Z,3.74
2022-12-17T12:00:27.392Z,3.63
2022-12-17T12:03:28.119Z,3.84
2022-12-17T12:06:20.050Z,3.19
2022-12-17T12:09:16.606Z,3.05
2022-12-17T12:15:06.639Z,3.01
2022-12-17T12:18:10.450Z,2.73
2022-12-17T12:21:18.996Z,2.75
2022-12-17T12:24:21.149Z,2.74
2022-12-17T12:27:43.998Z,2.88
2022-12-17T12:30:35.648Z,2.80
2022-12-17T12:33:37.265Z,3.26
2022-12-17T12:36:30.522Z,2.86
2022-12-17T12:39:21.094Z,2.85
2022-12-17T12:42:19.213Z,2.85
2022-12-17T12:45:26.893Z,2.81
2022-12-17T12:48:29.706Z,2.46
2022-12-17T12:51:23.233Z,2.88
2022-12-17T12:54:21.212Z,3.03
2022-12-17T12:57:17.592Z,3.12
2022-12-17T13:00:07.672Z,2.87
2022-12-17T13:02:56.319Z,2.25
2022-12-17T13:05:45.437Z,2.61
2022-12-17T13:10:49.527Z,2.54
2022-12-17T13:16:31.623Z,3.10
2022-12-17T13:19:20.201Z,2.40
2022-12-17T13:21:50.569Z,2.49
2022-12-17T13:24:28.566Z,2.54
2022-12-17T13:26:58.195Z,2.34
2022-12-17T13:32:15.653Z,2.65
2022-12-17T13:35:10.071Z,2.44
2022-12-17T13:38:01.640Z,2.22
2022-12-17T13:41:10.863Z,2.03
2022-12-17T13:44:08.291Z,2.54
2022-12-17T13:46:47.934Z,2.40
2022-12-17T13:49:21.337Z,2.58
2022-12-17T13:52:05.227Z,2.30
2022-12-17T13:54:44.247Z,2.37
2022-12-17T13:57:17.089Z,2.46
2022-12-17T14:00:00.017Z,2.81
2022-12-17T14:02:39.383Z,2.54
2022-12-17T14:05:28.162Z,2.72
2022-12-17T14:08:02.588Z,2.50
2022-12-17T14:10:34.136Z,2.42
2022-12-17T14:13:06.792Z,2.26
2022-12-17T14:15:48.172Z,2.07
2022-12-17T14:18:21.474Z,2.34
2022-12-17T14:20:53.109Z,2.59
2022-12-17T14:23:30.466Z,2.49
2022-12-17T14:26:05.528Z,2.45
2022-12-17T14:28:38.813Z,2.16
2022-12-17T14:31:28.978Z,2.43
2022-12-17T14:34:08.132Z,2.01
2022-12-17T14:36:50.624Z,2.22
2022-12-17T14:39:30.233Z,2.33
2022-12-17T14:42:26.165Z,2.00
2022-12-17T14:44:59.548Z,2.23
2022-12-17T14:47:30.276Z,2.19
2022-12-17T14:50:02.693Z,2.62
2022-12-17T14:52:51.129Z,2.30
2022-12-17T14:55:39.278Z,2.15
2022-12-17T14:58:17.348Z,1.95
2022-12-17T15:00:57.087Z,2.05
2022-12-17T15:03:47.294Z,2.21
2022-12-17T15:06:21.022Z,2.08
2022-12-17T15:08:51.061Z,2.14
2022-12-17T15:11:22.128Z,2.33
2022-12-17T15:13:56.614Z,2.37
2022-12-17T15:16:28.916Z,1.58
2022-12-17T15:19:00.779Z,1.81
2022-12-17T15:21:30.685Z,1.35
2022-12-17T15:23:59.072Z,1.78
2022-12-17T15:26:37.182Z,1.46
2022-12-17T15:29:07.296Z,1.64
2022-12-17T15:31:37.516Z,1.47
2022-12-17T15:34:13.448Z,1.29
2022-12-17T15:36:43.130Z,1.40
2022-12-17T15:39:11.789Z,1.35
2022-12-17T15:42:03.854Z,1.51
2022-12-17T15:44:40.644Z,1.94
2022-12-17T15:47:09.363Z,1.53
2022-12-17T15:49:38.433Z,1.43
2022-12-17T15:52:16.567Z,1.34
2022-12-17T15:54:53.068Z,1.63
2022-12-17T15:57:25.083Z,1.99
2022-12-17T15:59:59.226Z,1.72
2022-12-17T16:02:38.319Z,1.86
2022-12-17T16:05:12.796Z,2.20
2022-12-17T16:07:45.096Z,1.91
2022-12-17T16:10:15.146Z,1.87
2022-12-17T16:12:45.380Z,2.24
2022-12-17T16:15:18.548Z,2.13
2022-12-17T16:17:49.123Z,1.90
2022-12-17T16:20:21.146Z,1.85
2022-12-17T16:22:51.635Z,2.04
2022-12-17T16:25:21.542Z,1.90
2022-12-17T16:27:51.112Z,1.67
2022-12-17T16:30:22.136Z,1.97
2022-12-17T16:32:54.083Z,1.94
2022-12-17T16:35:24.869Z,1.81
2022-12-17T16:38:08.107Z,1.53
2022-12-17T16:40:45.082Z,1.95
2022-12-17T16:43:17.089Z,2.16
2022-12-17T16:45:57.138Z,2.39
2022-12-17T16:48:27.348Z,1.96
2022-12-17T16:50:56.430Z,1.52
2022-12-17T16:56:08.987Z,2.08
2022-12-17T16:58:41.224Z,1.82
2022-12-17T17:01:11.117Z,2.10
2022-12-17T17:03:41.204Z,2.37
2022-12-17T17:06:19.049Z,2.40
2022-12-17T17:08:54.008Z,2.39
2022-12-17T17:11:25.271Z,2.34
2022-12-17T17:13:58.573Z,1.88
2022-12-17T17:16:30.706Z,1.64
2022-12-17T17:18:59.635Z,2.34
2022-12-17T17:21:30.665Z,2.04
2022-12-17T17:24:14.137Z,1.89
2022-12-17T17:26:49.659Z,2.14
2022-12-17T17:29:24.792Z,2.04
2022-12-17T17:32:15.109Z,1.87
2022-12-17T17:34:44.136Z,1.83
2022-12-17T17:37:14.056Z,1.89
2022-12-17T17:39:47.169Z,2.13
2022-12-17T17:42:16.096Z,1.80
2022-12-17T17:44:52.039Z,1.72
2022-12-17T17:47:25.136Z,2.07
2022-12-17T17:49:54.568Z,1.97
2022-12-17T17:52:23.117Z,1.93
2022-12-17T17:54:53.087Z,1.84
2022-12-17T17:57:21.290Z,2.14
2022-12-17T17:59:57.608Z,2.14
2022-12-17T18:02:26.548Z,2.23
2022-12-17T18:04:56.755Z,2.33
2022-12-17T18:07:27.501Z,2.17
2022-12-17T18:10:00.151Z,2.20
2022-12-17T18:12:55.024Z,2.18
2022-12-17T18:15:25.241Z,1.99
2022-12-17T18:17:56.489Z,2.36
2022-12-17T18:20:26.279Z,2.26
2022-12-17T18:23:01.062Z,2.09
2022-12-17T18:25:35.815Z,2.09
2022-12-17T18:28:06.446Z,2.20
2022-12-17T18:30:38.368Z,1.85
2022-12-17T18:33:10.369Z,2.22
2022-12-17T18:35:41.093Z,1.97
2022-12-17T18:38:25.741Z,2.23
2022-12-17T18:41:27.080Z,2.01
2022-12-17T18:44:01.364Z,2.37
2022-12-17T18:46:40.298Z,2.60
2022-12-17T18:49:12.079Z,2.24
2022-12-17T18:57:18.480Z,2.14
2022-12-17T19:00:07.375Z,1.92
2022-12-17T19:03:05.802Z,2.36
2022-12-17T19:05:54.470Z,2.44
2022-12-17T19:08:24.411Z,2.37
2022-12-17T19:10:59.061Z,2.20
2022-12-17T19:13:31.305Z,2.38
2022-12-17T19:16:17.174Z,2.68
2022-12-17T19:18:54.472Z,2.63
2022-12-17T19:21:24.038Z,2.58
2022-12-17T19:24:02.351Z,2.64
2022-12-17T19:26:32.067Z,2.68
2022-12-17T19:29:16.082Z,2.11
2022-12-17T19:31:46.348Z,2.36
2022-12-17T19:34:27.037Z,1.90
2022-12-17T19:37:00.333Z,1.97
2022-12-17T19:39:34.094Z,2.17
2022-12-17T19:42:11.144Z,1.88
2022-12-17T19:44:40.521Z,1.68
2022-12-17T19:47:13.133Z,1.25
2022-12-17T19:49:41.498Z,1.80
2022-12-17T19:52:13.998Z,2.40
2022-12-17T19:54:45.892Z,2.15
2022-12-17T19:57:18.049Z,1.94
2022-12-17T19:59:51.340Z,2.25
2022-12-17T20:04:58.288Z,1.92
2022-12-17T20:07:27.443Z,2.21
2022-12-17T20:10:03.034Z,1.86
2022-12-17T20:12:34.127Z,1.89
2022-12-17T20:15:10.076Z,2.05
2022-12-17T20:17:38.156Z,2.22
2022-12-17T20:22:50.636Z,1.81
2022-12-17T20:25:20.003Z,2.12
2022-12-17T20:27:48.543Z,1.83
2022-12-17T20:30:16.751Z,1.98
2022-12-17T20:32:47.140Z,2.12
2022-12-17T20:35:22.066Z,2.45
2022-12-17T20:37:58.171Z,1.94
2022-12-17T20:40:40.742Z,2.45
2022-12-17T20:43:11.367Z,2.47
2022-12-17T20:45:50.572Z,2.38
2022-12-17T20:48:22.725Z,1.86
2022-12-17T20:50:55.084Z,1.85
2022-12-17T20:53:28.998Z,2.04
2022-12-17T20:56:07.997Z,2.19
2022-12-17T20:58:53.382Z,1.92
2022-12-17T21:01:24.763Z,1.81
2022-12-17T21:03:58.028Z,1.95
2022-12-17T21:06:29.035Z,1.45
2022-12-17T21:09:06.232Z,2.00
2022-12-17T21:11:44.068Z,1.48
2022-12-17T21:14:15.174Z,2.00
2022-12-17T21:16:49.472Z,1.78
2022-12-17T21:19:26.294Z,1.64
2022-12-17T21:21:56.118Z,1.54
2022-12-17T21:24:26.136Z,1.81
2022-12-17T21:26:54.232Z,1.74
2022-12-17T21:29:23.983Z,1.68
2022-12-17T21:32:05.022Z,2.09
2022-12-17T21:34:39.161Z,1.75
2022-12-17T21:37:09.581Z,1.85
2022-12-17T21:39:39.027Z,2.27
2022-12-17T21:42:28.240Z,2.26
2022-12-17T21:44:55.854Z,2.25
2022-12-17T21:47:24.731Z,2.28
2022-12-17T21:49:57.003Z,2.12
2022-12-17T21:52:30.354Z,2.12
2022-12-17T21:55:01.970Z,2.31
2022-12-17T21:57:32.137Z,2.07
2022-12-17T22:00:00.445Z,1.75
2022-12-17T22:02:29.489Z,1.52
2022-12-17T22:04:58.213Z,1.39
2022-12-17T22:07:33.545Z,1.27
2022-12-17T22:10:34.888Z,1.33
2022-12-17T22:13:18.001Z,1.19
2022-12-17T22:15:48.030Z,0.98
2022-12-17T22:18:18.439Z,1.02
2022-12-17T22:20:59.225Z,1.38
2022-12-17T22:23:28.930Z,1.02
2022-12-17T22:25:57.336Z,0.93
2022-12-17T22:28:28.127Z,1.30
2022-12-17T22:31:25.877Z,0.98
2022-12-17T22:38:54.452Z,1.60
2022-12-17T22:44:32.115Z,1.26
2022-12-17T22:44:38.395Z,1.76
2022-12-17T22:45:16.266Z,1.72
2022-12-17T22:47:45.129Z,0.86
2022-12-17T22:50:27.572Z,0.69
2022-12-17T22:53:09.914Z,1.03
2022-12-17T22:56:14.584Z,0.96
2022-12-17T22:58:48.460Z,1.05
2022-12-17T23:01:22.727Z,1.47
2022-12-17T23:04:24.263Z,1.55
2022-12-17T23:07:14.265Z,1.31
2022-12-17T23:09:45.305Z,1.35
2022-12-17T23:12:44.882Z,1.40
2022-12-17T23:15:19.435Z,0.83
2022-12-17T23:18:01.539Z,1.36
2022-12-17T23:20:53.910Z,1.46
2022-12-17T23:23:44.332Z,1.05
2022-12-17T23:26:36.057Z,1.24
2022-12-17T23:29:09.282Z,1.11
2022-12-17T23:31:40.413Z,1.07
2022-12-17T23:34:28.369Z,1.23
2022-12-17T23:37:01.036Z,1.19
2022-12-17T23:39:34.374Z,1.42
2022-12-17T23:42:03.059Z,1.36
2022-12-17T23:47:17.267Z,1.14
2022-12-17T23:49:45.311Z,1.06
2022-12-17T23:52:14.048Z,1.32
2022-12-17T23:54:42.197Z,1.11
2022-12-17T23:57:10.721Z,1.12
2022-12-17T23:59:40.546Z,1.17
